ストックホルム/アーランダ の空港の天気 - METARとTAF

ストックホルム・アーランダ空港 ( ESSA / ARN ) - スウェーデン ストックホルム
飛行場実況気象(Metar)
観測時間06/29 03:50 CEST (06/29 01:50 UTC)
風向・風速北 2m/s
視程10km以上
天気現象
なし
気温6℃
湿度87%
気圧1011hPa
METARESSA 290150Z 36004KT CAVOK 06/04 Q1011 NOSIG
過去の天気等 Google飛行場航空写真 Wunderground天気予報

過去48時間のMETAR

飛行場予報(TAF)
発表時間: 6/29 01:30 CEST (6/28 23:30 UTC)
予報対象時間: 29日2時 CEST ~ 30日2時 CEST
風向・風速東北東 3m/s
視程10km以上
なし
TAF ESSA 282330Z 2900/2924 06006KT CAVOK